createdAt,value
2019-04-20T00:00:39.974Z,17.00
2019-04-20T00:03:01.508Z,17.00
2019-04-20T00:05:30.846Z,16.90
2019-04-20T00:08:03.221Z,16.80
2019-04-20T00:10:41.731Z,16.80
2019-04-20T00:13:11.633Z,16.70
2019-04-20T00:15:32.311Z,16.60
2019-04-20T00:18:04.615Z,16.60
2019-04-20T00:20:34.368Z,16.50
2019-04-20T00:23:26.884Z,16.40
2019-04-20T00:26:17.285Z,16.40
2019-04-20T00:28:55.977Z,16.30
2019-04-20T00:31:26.916Z,16.10
2019-04-20T00:33:52.737Z,16.10
2019-04-20T00:36:11.913Z,16.00
2019-04-20T00:38:46.285Z,15.90
2019-04-20T00:41:13.721Z,15.80
2019-04-20T00:43:51.064Z,15.70
2019-04-20T00:46:26.387Z,15.60
2019-04-20T00:49:00.797Z,15.50
2019-04-20T00:51:35.314Z,15.40
2019-04-20T00:53:55.261Z,15.30
2019-04-20T00:56:22.358Z,15.10
2019-04-20T00:59:05.797Z,15.00
2019-04-20T01:01:43.992Z,14.90
2019-04-20T01:04:13.184Z,14.80
2019-04-20T01:06:53.519Z,14.70
2019-04-20T01:09:18.236Z,14.60
2019-04-20T01:11:48.590Z,14.50
2019-04-20T01:14:21.109Z,14.40
2019-04-20T01:16:54.958Z,14.30
2019-04-20T01:19:19.261Z,14.30
2019-04-20T01:21:54.864Z,14.20
2019-04-20T01:24:24.842Z,14.00
2019-04-20T01:26:53.707Z,14.00
2019-04-20T01:29:29.717Z,13.90
2019-04-20T01:32:06.168Z,13.80
2019-04-20T01:34:36.783Z,13.80
2019-04-20T01:37:04.440Z,13.70
2019-04-20T01:39:31.922Z,13.60
2019-04-20T01:41:52.199Z,13.60
2019-04-20T01:44:26.172Z,13.50
2019-04-20T01:46:55.240Z,13.50
2019-04-20T01:49:25.618Z,13.40
2019-04-20T01:52:03.943Z,13.30
2019-04-20T01:54:42.263Z,13.30
2019-04-20T01:57:04.701Z,13.20
2019-04-20T01:59:39.815Z,13.20
2019-04-20T02:02:35.517Z,13.10
2019-04-20T02:05:11.546Z,13.10
2019-04-20T02:07:38.764Z,13.00
2019-04-20T02:10:11.368Z,13.00
2019-04-20T02:12:39.582Z,12.90
2019-04-20T02:15:19.966Z,12.90
2019-04-20T02:17:46.120Z,12.90
2019-04-20T02:20:27.525Z,12.80
2019-04-20T02:22:55.356Z,12.80
2019-04-20T02:25:10.594Z,12.80
2019-04-20T02:27:49.737Z,12.70
2019-04-20T02:30:53.987Z,12.70
2019-04-20T02:33:32.245Z,12.70
2019-04-20T02:38:56.442Z,12.60
2019-04-20T02:41:29.449Z,12.50
2019-04-20T02:43:48.385Z,12.50
2019-04-20T02:46:28.595Z,12.50
2019-04-20T02:48:39.421Z,12.40
2019-04-20T02:53:51.196Z,12.30
2019-04-20T02:56:12.948Z,12.20
2019-04-20T02:58:50.256Z,12.10
2019-04-20T03:01:29.417Z,12.10
2019-04-20T03:03:44.966Z,12.10
2019-04-20T03:06:24.465Z,12.10
2019-04-20T03:09:06.700Z,12.10
2019-04-20T03:11:40.726Z,12.10
2019-04-20T03:13:59.270Z,12.10
2019-04-20T03:16:32.229Z,12.10
2019-04-20T03:19:01.240Z,12.00
2019-04-20T03:21:39.084Z,12.00
2019-04-20T03:24:17.012Z,12.00
2019-04-20T03:26:36.555Z,12.00
2019-04-20T03:29:09.887Z,11.90
2019-04-20T03:32:15.487Z,11.90
2019-04-20T03:36:55.062Z,11.80
2019-04-20T03:39:19.093Z,11.80
2019-04-20T03:41:34.904Z,11.80
2019-04-20T03:44:04.504Z,11.70
2019-04-20T03:46:36.613Z,11.60
2019-04-20T03:49:20.064Z,11.60
2019-04-20T03:51:53.481Z,11.60
2019-04-20T03:54:20.217Z,11.50
2019-04-20T03:57:02.348Z,11.50
2019-04-20T03:59:51.040Z,11.50
2019-04-20T04:04:56.268Z,11.40
2019-04-20T04:07:16.741Z,11.40
2019-04-20T04:09:53.445Z,11.30
2019-04-20T04:12:39.878Z,11.30
2019-04-20T04:15:06.559Z,11.30
2019-04-20T04:17:40.212Z,11.20
2019-04-20T04:20:12.669Z,11.20
2019-04-20T04:22:50.345Z,11.20
2019-04-20T04:25:20.965Z,11.20
2019-04-20T04:27:59.383Z,11.20
2019-04-20T04:30:22.113Z,11.20
2019-04-20T04:33:20.079Z,11.10
2019-04-20T04:35:24.312Z,11.10
2019-04-20T04:37:57.095Z,11.10
2019-04-20T04:40:47.486Z,11.10
2019-04-20T04:42:57.837Z,11.10
2019-04-20T04:45:15.600Z,11.00
2019-04-20T04:47:42.836Z,11.00
2019-04-20T04:50:17.561Z,11.00
2019-04-20T04:52:53.650Z,11.00
2019-04-20T04:55:25.731Z,11.00
2019-04-20T04:57:43.748Z,11.00
2019-04-20T05:00:18.764Z,11.00
2019-04-20T05:02:51.684Z,11.10
2019-04-20T05:05:35.755Z,11.10
2019-04-20T05:07:59.445Z,11.10
2019-04-20T05:10:19.507Z,11.10
2019-04-20T05:12:51.286Z,11.20
2019-04-20T05:15:35.760Z,11.20
2019-04-20T05:18:16.783Z,11.30
2019-04-20T05:20:46.820Z,11.40
2019-04-20T05:23:16.365Z,11.50
2019-04-20T05:25:57.143Z,11.50
2019-04-20T05:28:27.799Z,11.70
2019-04-20T05:30:52.551Z,12.20
2019-04-20T05:33:27.803Z,12.90
2019-04-20T05:36:08.398Z,13.60
2019-04-20T05:38:41.471Z,14.00
2019-04-20T05:41:07.008Z,14.60
2019-04-20T05:43:56.563Z,14.90
2019-04-20T05:46:26.691Z,15.20
2019-04-20T05:48:57.847Z,15.50
2019-04-20T05:54:05.645Z,15.70
2019-04-20T05:56:35.898Z,15.90
2019-04-20T05:58:59.892Z,16.10
2019-04-20T06:01:34.442Z,16.40
2019-04-20T06:03:58.107Z,16.50
2019-04-20T06:06:49.783Z,16.70
2019-04-20T06:09:16.540Z,16.80
2019-04-20T06:12:04.910Z,17.00
2019-04-20T06:14:10.089Z,17.10
2019-04-20T06:16:56.911Z,17.20
2019-04-20T06:19:41.134Z,17.50
2019-04-20T06:22:23.110Z,17.60
2019-04-20T06:24:57.260Z,17.80
2019-04-20T06:27:09.776Z,18.00
2019-04-20T06:29:41.306Z,18.30
2019-04-20T06:32:20.346Z,18.60
2019-04-20T06:34:53.569Z,18.80
2019-04-20T06:37:29.011Z,19.10
2019-04-20T06:40:22.485Z,19.30
2019-04-20T06:42:34.274Z,19.40
2019-04-20T06:45:07.039Z,19.60
2019-04-20T06:47:29.418Z,19.80
2019-04-20T06:50:03.412Z,20.00
2019-04-20T06:52:34.203Z,20.10
2019-04-20T06:55:02.638Z,20.30
2019-04-20T06:57:40.382Z,20.50
2019-04-20T07:00:11.385Z,20.60
2019-04-20T07:02:41.465Z,20.80
2019-04-20T07:05:15.945Z,20.90
2019-04-20T07:07:45.129Z,21.40
2019-04-20T07:12:42.158Z,21.80
2019-04-20T07:15:15.068Z,21.90
2019-04-20T07:17:53.638Z,22.00
2019-04-20T07:20:16.837Z,22.20
2019-04-20T07:22:54.136Z,22.60
2019-04-20T07:25:27.992Z,22.90
2019-04-20T07:27:53.332Z,23.10
2019-04-20T07:30:27.620Z,23.10
2019-04-20T07:32:59.725Z,23.50
2019-04-20T07:35:25.116Z,23.80
2019-04-20T07:38:16.817Z,24.30
2019-04-20T07:40:24.574Z,24.60
2019-04-20T07:43:00.314Z,25.00
2019-04-20T07:45:29.597Z,25.30
2019-04-20T07:48:07.470Z,25.30
2019-04-20T07:50:25.144Z,25.50
2019-04-20T07:52:54.895Z,25.80
2019-04-20T07:58:02.739Z,26.20
2019-04-20T08:00:55.114Z,26.80
2019-04-20T08:03:31.082Z,26.90
2019-04-20T08:05:55.374Z,27.20
2019-04-20T08:08:35.209Z,27.60
2019-04-20T08:10:59.609Z,27.90
2019-04-20T08:13:52.646Z,28.10
2019-04-20T08:16:08.395Z,28.50
2019-04-20T08:18:41.175Z,28.50
2019-04-20T08:21:12.857Z,28.70
2019-04-20T08:23:40.227Z,28.70
2019-04-20T08:26:00.448Z,29.00
2019-04-20T08:28:29.196Z,29.00
2019-04-20T08:31:30.105Z,29.50
2019-04-20T08:34:26.271Z,30.00
2019-04-20T08:36:51.015Z,30.20
2019-04-20T08:41:56.174Z,30.40
2019-04-20T08:44:42.947Z,30.50
2019-04-20T08:47:03.837Z,30.60
2019-04-20T08:49:29.937Z,30.40
2019-04-20T08:52:01.788Z,30.10
2019-04-20T08:54:22.719Z,30.90
2019-04-20T08:56:43.462Z,31.40
2019-04-20T08:59:06.610Z,31.30
2019-04-20T09:01:37.139Z,31.90
2019-04-20T09:04:13.254Z,31.60
2019-04-20T09:06:49.543Z,31.40
2019-04-20T09:09:41.866Z,31.10
2019-04-20T09:14:21.310Z,30.80
2019-04-20T09:16:57.075Z,31.20
2019-04-20T09:19:36.666Z,31.20
2019-04-20T09:22:07.990Z,31.50
2019-04-20T09:24:52.516Z,32.00
2019-04-20T09:27:08.693Z,32.60
2019-04-20T09:29:40.694Z,32.70
2019-04-20T09:32:16.772Z,32.10
2019-04-20T09:34:53.205Z,31.80
2019-04-20T09:37:40.060Z,32.50
2019-04-20T09:39:52.882Z,33.30
2019-04-20T09:42:09.850Z,33.20
2019-04-20T09:44:44.991Z,32.80
2019-04-20T09:47:10.417Z,32.20
2019-04-20T09:49:54.371Z,32.50
2019-04-20T09:52:22.315Z,32.80
2019-04-20T09:54:55.221Z,33.50
2019-04-20T09:57:29.571Z,33.30
2019-04-20T09:59:57.743Z,33.50
2019-04-20T10:02:18.743Z,34.00
2019-04-20T10:04:41.778Z,34.10
2019-04-20T10:07:14.270Z,34.80
2019-04-20T10:09:44.635Z,34.80
2019-04-20T10:12:11.317Z,34.70
2019-04-20T10:14:40.718Z,34.50
2019-04-20T10:17:09.688Z,34.50
2019-04-20T10:19:40.963Z,34.70
2019-04-20T10:22:08.848Z,34.60
2019-04-20T10:24:38.791Z,34.40
2019-04-20T10:27:08.378Z,34.50
2019-04-20T10:29:37.588Z,33.80
2019-04-20T10:32:11.023Z,33.50
2019-04-20T10:34:38.747Z,33.50
2019-04-20T10:37:09.351Z,33.90
2019-04-20T10:39:40.550Z,33.70
2019-04-20T10:42:10.109Z,33.80
2019-04-20T10:44:38.970Z,33.70
2019-04-20T10:47:09.207Z,33.50
2019-04-20T10:49:38.462Z,33.40
2019-04-20T10:52:07.819Z,33.60
2019-04-20T10:54:38.491Z,33.60
2019-04-20T10:57:07.813Z,33.20
2019-04-20T10:59:37.280Z,33.30
2019-04-20T11:02:06.008Z,33.60
2019-04-20T11:04:34.626Z,33.50
2019-04-20T11:07:03.182Z,33.70
2019-04-20T11:09:32.452Z,34.00
2019-04-20T11:12:02.223Z,34.00
2019-04-20T11:14:34.809Z,33.90
2019-04-20T11:17:02.412Z,33.60
2019-04-20T11:19:31.571Z,33.80
2019-04-20T11:22:00.276Z,34.30
2019-04-20T11:24:30.190Z,34.50
2019-04-20T11:26:58.649Z,34.50
2019-04-20T11:29:28.327Z,34.30
2019-04-20T11:31:58.142Z,34.30
2019-04-20T11:34:32.965Z,34.30
2019-04-20T11:36:57.654Z,34.60
2019-04-20T11:39:27.197Z,34.40
2019-04-20T11:41:55.992Z,34.50
2019-04-20T11:44:26.857Z,34.50
2019-04-20T11:46:54.888Z,34.70
2019-04-20T11:49:23.627Z,34.30
2019-04-20T11:51:52.375Z,34.10
2019-04-20T11:54:22.073Z,34.60
2019-04-20T11:56:51.225Z,34.30
2019-04-20T11:59:21.027Z,34.20
2019-04-20T12:01:57.288Z,33.80
2019-04-20T12:04:34.065Z,33.80
2019-04-20T12:06:54.895Z,34.20
2019-04-20T12:09:24.622Z,33.50
2019-04-20T12:12:07.094Z,33.50
2019-04-20T12:14:24.929Z,33.60
2019-04-20T12:16:53.653Z,33.80
2019-04-20T12:19:22.897Z,33.50
2019-04-20T12:21:51.808Z,33.10
2019-04-20T12:24:20.486Z,33.10
2019-04-20T12:26:49.088Z,33.40
2019-04-20T12:29:17.822Z,33.90
2019-04-20T12:31:51.138Z,33.60
2019-04-20T12:34:18.083Z,33.80
2019-04-20T12:36:47.022Z,33.90
2019-04-20T12:39:15.554Z,33.70
2019-04-20T12:41:53.234Z,33.30
2019-04-20T12:44:35.528Z,33.20
2019-04-20T12:47:05.677Z,33.20
2019-04-20T12:49:37.888Z,33.50
2019-04-20T12:52:08.443Z,33.40
2019-04-20T12:54:39.969Z,33.40
2019-04-20T12:57:18.535Z,33.60
2019-04-20T12:59:44.370Z,32.70
2019-04-20T13:02:13.406Z,32.50
2019-04-20T13:04:39.511Z,32.40
2019-04-20T13:07:08.281Z,32.80
2019-04-20T13:09:52.657Z,33.00
2019-04-20T13:12:26.553Z,32.80
2019-04-20T13:15:08.692Z,32.50
2019-04-20T13:17:37.987Z,32.90
2019-04-20T13:20:12.029Z,33.40
2019-04-20T13:22:41.176Z,33.10
2019-04-20T13:25:10.776Z,33.20
2019-04-20T13:27:40.884Z,32.60
2019-04-20T13:30:13.277Z,32.50
2019-04-20T13:32:43.598Z,32.60
2019-04-20T13:35:16.307Z,32.60
2019-04-20T13:37:46.865Z,33.00
2019-04-20T13:40:19.458Z,33.40
2019-04-20T13:42:49.884Z,33.70
2019-04-20T13:45:21.442Z,33.70
2019-04-20T13:47:50.878Z,33.60
2019-04-20T13:50:24.089Z,33.60
2019-04-20T13:52:56.665Z,33.80
2019-04-20T13:55:27.326Z,33.60
2019-04-20T13:58:18.262Z,32.80
2019-04-20T14:00:55.533Z,32.20
2019-04-20T14:03:27.028Z,32.00
2019-04-20T14:06:02.631Z,32.20
2019-04-20T14:08:33.675Z,32.10
2019-04-20T14:11:03.139Z,32.20
2019-04-20T14:13:43.697Z,32.40
2019-04-20T14:16:07.559Z,32.30
2019-04-20T14:18:37.155Z,32.10
2019-04-20T14:21:07.999Z,32.10
2019-04-20T14:23:37.048Z,32.10
2019-04-20T14:26:07.011Z,32.40
2019-04-20T14:28:36.738Z,32.50
2019-04-20T14:31:05.847Z,32.70
2019-04-20T14:33:34.861Z,32.20
2019-04-20T14:36:05.187Z,32.00
2019-04-20T14:38:34.062Z,31.90
2019-04-20T14:41:02.693Z,31.40
2019-04-20T14:43:33.492Z,31.50
2019-04-20T14:46:02.954Z,31.70
2019-04-20T14:48:31.746Z,31.70
2019-04-20T14:51:01.542Z,31.20
2019-04-20T14:53:31.563Z,31.30
2019-04-20T14:56:01.747Z,31.20
2019-04-20T14:58:41.407Z,31.40
2019-04-20T15:01:22.976Z,31.20
2019-04-20T15:04:02.882Z,31.00
2019-04-20T15:06:27.473Z,30.90
2019-04-20T15:08:56.755Z,30.10
2019-04-20T15:11:25.516Z,29.70
2019-04-20T15:13:54.138Z,29.30
2019-04-20T15:16:24.520Z,29.20
2019-04-20T15:18:58.113Z,28.70
2019-04-20T15:21:31.666Z,28.10
2019-04-20T15:24:01.813Z,27.50
2019-04-20T15:26:30.967Z,27.00
2019-04-20T15:29:00.224Z,26.60
2019-04-20T15:31:32.263Z,26.30
2019-04-20T15:34:04.288Z,26.00
2019-04-20T15:36:32.173Z,25.80
2019-04-20T15:39:01.077Z,25.70
2019-04-20T15:41:31.343Z,25.50
2019-04-20T15:44:01.559Z,25.40
2019-04-20T15:46:32.696Z,25.30
2019-04-20T15:49:02.295Z,25.20
2019-04-20T15:51:32.007Z,25.10
2019-04-20T15:54:01.893Z,25.10
2019-04-20T15:56:30.682Z,25.00
2019-04-20T15:58:59.188Z,24.90
2019-04-20T16:01:30.291Z,24.90
2019-04-20T16:04:03.758Z,24.90
2019-04-20T16:06:32.877Z,24.90
2019-04-20T16:09:02.191Z,24.80
2019-04-20T16:11:31.134Z,24.70
2019-04-20T16:14:03.139Z,24.70
2019-04-20T16:16:31.959Z,24.70
2019-04-20T16:19:03.993Z,24.70
2019-04-20T16:21:36.754Z,24.70
2019-04-20T16:24:04.518Z,24.60
2019-04-20T16:26:35.737Z,24.60
2019-04-20T16:29:05.987Z,24.60
2019-04-20T16:31:34.518Z,24.60
2019-04-20T16:34:03.371Z,24.60
2019-04-20T16:36:32.416Z,24.60
2019-04-20T16:39:01.553Z,24.50
2019-04-20T16:41:30.601Z,24.40
2019-04-20T16:43:59.556Z,24.30
2019-04-20T16:46:28.170Z,24.30
2019-04-20T16:48:57.033Z,24.20
2019-04-20T16:51:26.998Z,24.20
2019-04-20T16:53:56.175Z,24.10
2019-04-20T16:56:24.778Z,24.10
2019-04-20T16:58:59.457Z,24.00
2019-04-20T17:01:23.589Z,24.00
2019-04-20T17:04:01.826Z,23.90
2019-04-20T17:06:24.161Z,23.90
2019-04-20T17:08:52.854Z,23.80
2019-04-20T17:11:21.688Z,23.80
2019-04-20T17:13:53.739Z,23.70
2019-04-20T17:16:21.872Z,23.70
2019-04-20T17:18:51.844Z,23.60
2019-04-20T17:21:25.322Z,23.60
2019-04-20T17:23:51.425Z,23.50
2019-04-20T17:26:23.018Z,23.40
2019-04-20T17:28:55.570Z,23.30
2019-04-20T17:31:27.309Z,23.30
2019-04-20T17:34:04.628Z,23.20
2019-04-20T17:36:31.154Z,23.10
2019-04-20T17:39:02.441Z,23.10
2019-04-20T17:41:49.973Z,23.00
2019-04-20T17:44:17.349Z,23.00
2019-04-20T17:46:44.331Z,22.90
2019-04-20T17:49:14.804Z,22.80
2019-04-20T17:51:52.379Z,22.80
2019-04-20T17:54:06.282Z,22.70
2019-04-20T17:56:34.020Z,22.60
2019-04-20T17:59:03.993Z,22.60
2019-04-20T18:01:48.742Z,22.50
2019-04-20T18:04:41.788Z,22.40
2019-04-20T18:07:10.640Z,22.40
2019-04-20T18:09:51.136Z,22.20
2019-04-20T18:12:03.327Z,22.20
2019-04-20T18:14:43.301Z,22.10
2019-04-20T18:17:29.310Z,22.00
2019-04-20T18:19:49.111Z,22.00
2019-04-20T18:22:19.529Z,21.90
2019-04-20T18:25:07.645Z,21.80
2019-04-20T18:27:37.292Z,21.70
2019-04-20T18:30:06.887Z,21.70
2019-04-20T18:32:33.602Z,21.60
2019-04-20T18:35:10.390Z,21.50
2019-04-20T18:37:44.109Z,21.40
2019-04-20T18:40:14.902Z,21.30
2019-04-20T18:42:55.952Z,21.30
2019-04-20T18:45:30.586Z,21.20
2019-04-20T18:48:07.629Z,21.10
2019-04-20T18:50:27.640Z,21.00
2019-04-20T18:52:51.414Z,20.90
2019-04-20T18:55:31.743Z,20.90
2019-04-20T18:57:50.919Z,20.80
2019-04-20T19:00:27.101Z,20.70
2019-04-20T19:02:56.090Z,20.60
2019-04-20T19:05:23.940Z,20.60
2019-04-20T19:08:00.896Z,20.60
2019-04-20T19:10:29.114Z,20.50
2019-04-20T19:12:59.980Z,20.40
2019-04-20T19:15:55.999Z,20.30
2019-04-20T19:18:25.900Z,20.30
2019-04-20T19:20:46.890Z,20.20
2019-04-20T19:23:16.779Z,20.10
2019-04-20T19:25:45.815Z,20.10
2019-04-20T19:28:19.485Z,20.00
2019-04-20T19:31:00.076Z,20.00
2019-04-20T19:33:30.991Z,19.90
2019-04-20T19:35:56.143Z,19.80
2019-04-20T19:38:23.709Z,19.80
2019-04-20T19:40:56.528Z,19.60
2019-04-20T19:43:27.805Z,19.60
2019-04-20T19:46:29.675Z,19.60
2019-04-20T19:48:32.132Z,19.50
2019-04-20T19:51:12.887Z,19.40
2019-04-20T19:53:36.634Z,19.40
2019-04-20T19:56:04.054Z,19.30
2019-04-20T19:58:30.328Z,19.30
2019-04-20T20:00:53.796Z,19.30
2019-04-20T20:03:21.918Z,19.20
2019-04-20T20:05:52.911Z,19.10
2019-04-20T20:08:25.975Z,19.00
2019-04-20T20:10:52.601Z,19.00
2019-04-20T20:13:27.386Z,19.00
2019-04-20T20:15:57.495Z,19.00
2019-04-20T20:18:35.611Z,18.90
2019-04-20T20:21:09.969Z,18.90
2019-04-20T20:23:23.902Z,18.90
2019-04-20T20:25:53.206Z,18.90
2019-04-20T20:28:31.387Z,18.90
2019-04-20T20:31:07.278Z,18.80
2019-04-20T20:33:39.505Z,18.80
2019-04-20T20:36:03.768Z,18.80
2019-04-20T20:38:33.209Z,18.70
2019-04-20T20:41:07.787Z,18.60
2019-04-20T20:43:43.089Z,18.60
2019-04-20T20:46:09.081Z,18.50
2019-04-20T20:48:38.877Z,18.50
2019-04-20T20:51:14.743Z,18.50
2019-04-20T20:53:39.946Z,18.50
2019-04-20T20:56:13.362Z,18.40
2019-04-20T20:58:43.017Z,18.30
2019-04-20T21:01:09.659Z,18.30
2019-04-20T21:03:38.531Z,18.20
2019-04-20T21:06:03.402Z,18.20
2019-04-20T21:08:36.275Z,18.10
2019-04-20T21:11:06.848Z,18.10
2019-04-20T21:13:39.338Z,18.10
2019-04-20T21:16:12.936Z,18.00
2019-04-20T21:18:50.318Z,18.00
2019-04-20T21:21:17.923Z,18.00
2019-04-20T21:23:48.139Z,17.90
2019-04-20T21:26:11.461Z,17.80
2019-04-20T21:28:41.942Z,17.80
2019-04-20T21:31:16.818Z,17.70
2019-04-20T21:33:42.847Z,17.70
2019-04-20T21:36:18.167Z,17.70
2019-04-20T21:38:44.702Z,17.70
2019-04-20T21:41:16.221Z,17.70
2019-04-20T21:43:45.012Z,17.60
2019-04-20T21:46:14.336Z,17.60
2019-04-20T21:48:57.172Z,17.60
2019-04-20T21:51:27.474Z,17.60
2019-04-20T21:53:44.321Z,17.50
2019-04-20T21:56:13.154Z,17.50
2019-04-20T21:58:49.709Z,17.40
2019-04-20T22:01:22.223Z,17.40
2019-04-20T22:03:44.743Z,17.30
2019-04-20T22:06:14.084Z,17.20
2019-04-20T22:08:59.804Z,17.20
2019-04-20T22:11:24.057Z,17.20
2019-04-20T22:13:54.532Z,17.20
2019-04-20T22:16:25.592Z,17.10
2019-04-20T22:19:10.486Z,17.10
2019-04-20T22:21:35.535Z,17.00
2019-04-20T22:24:19.565Z,17.00
2019-04-20T22:26:50.357Z,17.00
2019-04-20T22:29:07.893Z,17.00
2019-04-20T22:31:38.154Z,16.90
2019-04-20T22:34:13.937Z,16.80
2019-04-20T22:36:43.090Z,16.80
2019-04-20T22:39:24.513Z,16.70
2019-04-20T22:42:01.175Z,16.70
2019-04-20T22:44:24.496Z,16.70
2019-04-20T22:46:52.199Z,16.70
2019-04-20T22:49:39.923Z,16.60
2019-04-20T22:51:59.618Z,16.60
2019-04-20T22:54:37.928Z,16.60
2019-04-20T22:57:03.326Z,16.50
2019-04-20T22:59:35.316Z,16.50
2019-04-20T23:01:58.217Z,16.40
2019-04-20T23:04:24.698Z,16.30
2019-04-20T23:06:55.159Z,16.30
2019-04-20T23:09:24.726Z,16.30
2019-04-20T23:12:03.015Z,16.20
2019-04-20T23:14:24.624Z,16.10
2019-04-20T23:16:55.356Z,16.10
2019-04-20T23:19:35.713Z,16.10
2019-04-20T23:22:00.838Z,16.00
2019-04-20T23:24:24.537Z,15.90
2019-04-20T23:26:53.211Z,15.90
2019-04-20T23:29:27.169Z,15.80
2019-04-20T23:31:59.349Z,15.70
2019-04-20T23:34:30.171Z,15.60
2019-04-20T23:36:56.650Z,15.50
2019-04-20T23:39:34.157Z,15.40
2019-04-20T23:42:02.472Z,15.40
2019-04-20T23:44:33.643Z,15.30
2019-04-20T23:47:08.630Z,15.20
2019-04-20T23:49:54.156Z,15.10
2019-04-20T23:52:32.110Z,15.00
2019-04-20T23:54:37.561Z,15.00
2019-04-20T23:57:06.115Z,14.90
2019-04-20T23:59:39.595Z,14.90
